Time;durP1;ratioP1;P1;durP2;ratioP2;P2;SDS_P1;SDS_P2;PMS_P1;PMS_P2;Temp;Humidity;BMP_temperature;BMP_pressure;BME280_temperature;BME280_humidity;BME280_pressure;Samples;Min_cycle;Max_cycle;Signal;HPM_P1;HPM_P2
2022/03/27 00:00:13;;;;;;;303.73;291.73;;;10.20;99.90;;;;;;4424808;32;20159;-57
2022/03/27 00:02:41;;;;;;;295.67;283.90;;;10.10;99.90;;;;;;4432568;32;20639;-58
2022/03/27 00:05:09;;;;;;;297.23;285.27;;;10.10;99.90;;;;;;4429313;32;20192;-57
2022/03/27 00:07:36;;;;;;;286.83;275.33;;;10.00;99.90;;;;;;4428413;32;20218;-57
2022/03/27 00:10:04;;;;;;;307.03;294.73;;;10.10;99.90;;;;;;4429071;32;20161;-58
2022/03/27 00:12:31;;;;;;;296.17;284.27;;;10.00;99.90;;;;;;4429356;32;20186;-57
2022/03/27 00:14:57;;;;;;;307.43;295.17;;;10.00;99.90;;;;;;4435130;32;20247;-57
2022/03/27 00:17:27;;;;;;;289.00;277.30;;;9.90;99.90;;;;;;4424768;32;20230;-56
2022/03/27 00:19:54;;;;;;;289.27;277.67;;;9.80;99.90;;;;;;4423607;32;20147;-58
2022/03/27 00:22:22;;;;;;;304.33;292.00;;;9.70;99.90;;;;;;4427281;32;20644;-57
2022/03/27 00:24:49;;;;;;;299.07;286.87;;;9.60;99.90;;;;;;4424645;32;20144;-57
2022/03/27 00:27:16;;;;;;;295.77;283.73;;;9.60;99.90;;;;;;4422778;32;20174;-57
2022/03/27 00:29:42;;;;;;;298.37;286.27;;;9.60;99.90;;;;;;4423829;32;20151;-57
2022/03/27 00:32:09;;;;;;;284.87;273.30;;;9.70;99.90;;;;;;4423132;32;20185;-58
2022/03/27 00:34:38;;;;;;;287.77;275.90;;;9.60;99.90;;;;;;4425178;32;20181;-58
2022/03/27 00:37:05;;;;;;;290.83;279.10;;;9.60;99.90;;;;;;4423056;32;20651;-58
2022/03/27 00:39:31;;;;;;;290.67;278.73;;;9.60;99.90;;;;;;4425219;32;20151;-57
2022/03/27 00:41:58;;;;;;;297.53;285.37;;;9.70;99.90;;;;;;4432681;32;20567;-57
2022/03/27 00:44:25;;;;;;;283.67;272.03;;;9.70;99.90;;;;;;4424731;32;20155;-57
2022/03/27 00:46:52;;;;;;;283.00;271.43;;;9.70;99.90;;;;;;4423387;32;20171;-57
2022/03/27 00:49:19;;;;;;;274.63;263.33;;;9.60;99.90;;;;;;4422566;32;20634;-57
2022/03/27 00:51:47;;;;;;;268.83;257.93;;;9.60;99.90;;;;;;4438350;32;20143;-57
2022/03/27 00:54:14;;;;;;;282.00;270.40;;;9.60;99.90;;;;;;4437516;32;20214;-57
2022/03/27 00:56:40;;;;;;;291.57;279.87;;;9.60;99.90;;;;;;4437928;32;20196;-58
2022/03/27 00:59:07;;;;;;;276.03;264.73;;;9.60;99.90;;;;;;4437500;32;20130;-56
2022/03/27 01:01:38;;;;;;;279.93;268.50;;;9.60;99.90;;;;;;4425671;32;20508;-57
2022/03/27 01:04:05;;;;;;;270.07;259.23;;;9.50;99.90;;;;;;4422158;32;20155;-57
2022/03/27 01:06:34;;;;;;;267.13;256.20;;;9.40;99.90;;;;;;4422008;32;20212;-58
2022/03/27 01:11:49;;;;;;;259.97;249.20;;;9.40;99.90;;;;;;4424246;32;20157;-55
2022/03/27 01:14:23;;;;;;;263.40;252.57;;;9.40;99.90;;;;;;4421960;32;20143;-58
2022/03/27 01:16:58;;;;;;;260.60;249.83;;;9.40;99.90;;;;;;4422348;32;20138;-58
2022/03/27 01:19:27;;;;;;;264.63;253.70;;;9.40;99.90;;;;;;4422115;32;20141;-57
2022/03/27 01:21:55;;;;;;;268.03;256.80;;;9.40;99.90;;;;;;4423440;32;20217;-57
2022/03/27 01:24:22;;;;;;;267.20;256.23;;;9.50;99.90;;;;;;4421891;32;20209;-58
2022/03/27 01:26:49;;;;;;;281.33;269.97;;;9.50;99.90;;;;;;4422270;32;20159;-58
2022/03/27 01:29:15;;;;;;;263.87;252.93;;;9.40;99.90;;;;;;4422380;32;20219;-58
2022/03/27 01:31:43;;;;;;;271.17;259.90;;;9.40;99.90;;;;;;4423221;32;20237;-57
2022/03/27 01:34:10;;;;;;;246.27;236.07;;;9.40;99.90;;;;;;4421078;32;20194;-58
2022/03/27 01:36:38;;;;;;;265.87;254.80;;;9.40;99.90;;;;;;4421915;32;20162;-58
2022/03/27 01:39:07;;;;;;;268.90;257.63;;;9.40;99.90;;;;;;4421505;32;20254;-59
2022/03/27 01:41:34;;;;;;;268.80;257.83;;;9.30;99.90;;;;;;4422645;32;20167;-58
2022/03/27 01:44:01;;;;;;;270.63;259.23;;;9.30;99.90;;;;;;4421330;32;20621;-57
2022/03/27 01:46:31;;;;;;;269.40;258.20;;;9.30;99.90;;;;;;4429496;32;20150;-58
2022/03/27 01:49:00;;;;;;;261.80;250.87;;;9.30;99.90;;;;;;4426842;32;20176;-58
2022/03/27 01:51:27;;;;;;;254.20;243.70;;;9.30;99.90;;;;;;4421735;32;20487;-58
2022/03/27 01:53:55;;;;;;;251.83;241.40;;;9.30;99.90;;;;;;4422605;32;20162;-58
2022/03/27 01:56:24;;;;;;;249.87;239.63;;;9.20;99.90;;;;;;4424236;32;20569;-59
2022/03/27 01:58:52;;;;;;;249.90;239.80;;;9.10;99.90;;;;;;4421406;32;20655;-57
2022/03/27 02:01:20;;;;;;;254.77;244.17;;;9.10;99.90;;;;;;4422450;32;20227;-58
2022/03/27 02:03:47;;;;;;;245.50;235.33;;;9.10;99.90;;;;;;4432803;32;20575;-59
2022/03/27 02:06:15;;;;;;;250.20;239.77;;;9.10;99.90;;;;;;4423553;32;20211;-59
2022/03/27 02:08:42;;;;;;;257.17;246.50;;;9.10;99.90;;;;;;4428137;32;20149;-58
2022/03/27 02:11:10;;;;;;;251.17;240.63;;;9.10;99.90;;;;;;4420909;32;20225;-57
2022/03/27 02:13:38;;;;;;;254.20;243.63;;;9.10;99.90;;;;;;4425074;32;20623;-58
2022/03/27 02:16:05;;;;;;;244.23;234.07;;;9.10;99.90;;;;;;4419349;32;20273;-58
2022/03/27 02:18:33;;;;;;;256.60;245.87;;;9.10;99.90;;;;;;4420591;32;20181;-58
2022/03/27 02:21:01;;;;;;;254.17;243.73;;;9.10;99.90;;;;;;4422549;32;20237;-58
2022/03/27 02:23:28;;;;;;;253.93;243.40;;;9.10;99.90;;;;;;4432478;32;20223;-58
2022/03/27 02:25:56;;;;;;;263.67;252.53;;;9.10;99.90;;;;;;4424085;32;20240;-58
2022/03/27 02:28:24;;;;;;;250.70;240.13;;;9.10;99.90;;;;;;4420114;32;20144;-57
2022/03/27 02:30:53;;;;;;;241.03;231.07;;;8.90;99.90;;;;;;4420070;32;20259;-58
2022/03/27 02:33:20;;;;;;;241.50;231.63;;;8.90;99.90;;;;;;4429103;32;20499;-58
2022/03/27 02:35:48;;;;;;;251.67;241.27;;;8.80;99.90;;;;;;4420972;32;20180;-57
2022/03/27 02:38:15;;;;;;;248.53;238.27;;;8.80;99.90;;;;;;4420426;32;20159;-57
2022/03/27 02:40:45;;;;;;;241.73;231.67;;;8.80;99.90;;;;;;4420344;32;20270;-59
2022/03/27 02:43:13;;;;;;;250.97;240.67;;;8.70;99.90;;;;;;4428302;32;20143;-58
2022/03/27 02:45:41;;;;;;;253.43;243.00;;;8.80;99.90;;;;;;4424206;32;20145;-59
2022/03/27 02:48:09;;;;;;;255.47;244.83;;;8.80;99.90;;;;;;4434444;32;20160;-58
2022/03/27 02:50:39;;;;;;;270.20;258.83;;;8.80;99.90;;;;;;4435773;32;20141;-58
2022/03/27 02:53:06;;;;;;;241.10;231.20;;;8.90;99.90;;;;;;4422511;32;20634;-58
2022/03/27 02:55:33;;;;;;;248.27;237.87;;;8.90;99.90;;;;;;4418870;32;20214;-57
2022/03/27 02:58:01;;;;;;;231.60;222.03;;;8.90;99.90;;;;;;4395112;32;1655242;-59
2022/03/27 03:00:30;;;;;;;248.00;237.70;;;8.90;99.90;;;;;;4442687;32;20152;-59
2022/03/27 03:02:57;;;;;;;247.50;237.07;;;8.80;99.90;;;;;;4447043;32;20598;-58
2022/03/27 03:05:25;;;;;;;244.33;233.97;;;8.80;99.90;;;;;;4449476;32;20587;-58
2022/03/27 03:07:52;;;;;;;239.00;228.93;;;8.80;99.90;;;;;;4451554;32;20191;-58
2022/03/27 03:10:19;;;;;;;243.93;233.67;;;8.80;99.90;;;;;;4451032;32;20211;-58
2022/03/27 03:12:46;;;;;;;249.03;238.60;;;8.80;99.90;;;;;;4450491;32;20288;-58
2022/03/27 03:15:14;;;;;;;250.73;240.10;;;8.70;99.90;;;;;;4442903;32;20630;-59
2022/03/27 03:17:41;;;;;;;242.03;231.70;;;8.70;99.90;;;;;;4447391;32;20175;-58
2022/03/27 03:20:10;;;;;;;235.43;225.47;;;8.80;99.90;;;;;;4449963;32;20163;-59
2022/03/27 03:22:40;;;;;;;245.73;235.33;;;8.80;99.90;;;;;;4439854;32;20529;-58
2022/03/27 03:25:08;;;;;;;242.33;232.17;;;8.80;99.90;;;;;;4440965;32;20163;-58
2022/03/27 03:27:35;;;;;;;228.07;218.20;;;8.80;99.90;;;;;;4447365;32;20177;-58
2022/03/27 03:30:02;;;;;;;221.87;212.53;;;8.70;99.90;;;;;;4449796;32;20232;-59
2022/03/27 03:32:29;;;;;;;238.17;228.13;;;8.70;99.90;;;;;;4437838;32;20209;-58
2022/03/27 03:34:56;;;;;;;237.80;227.83;;;8.70;99.90;;;;;;4438642;32;20163;-53
2022/03/27 03:37:24;;;;;;;234.57;224.63;;;8.70;99.90;;;;;;4439411;32;20218;-56
2022/03/27 03:39:53;;;;;;;226.13;216.60;;;8.70;99.90;;;;;;4448551;32;20167;-59
2022/03/27 03:42:20;;;;;;;234.77;224.80;;;8.60;99.90;;;;;;4440870;32;20660;-58
2022/03/27 03:44:47;;;;;;;236.00;226.07;;;8.60;99.90;;;;;;4441971;32;20237;-58
2022/03/27 03:47:14;;;;;;;239.07;229.10;;;8.60;99.90;;;;;;4449189;32;20205;-59
2022/03/27 03:49:41;;;;;;;225.13;215.63;;;8.60;99.90;;;;;;4448613;32;20160;-57
2022/03/27 03:52:08;;;;;;;223.17;213.90;;;8.60;99.90;;;;;;4448723;32;20160;-56
2022/03/27 03:54:35;;;;;;;222.33;212.97;;;8.50;99.90;;;;;;4441086;32;20157;-58
2022/03/27 04:00:00;;;;;;;215.10;206.13;;;8.50;99.90;;;;;;4451528;32;20482;-58
2022/03/27 04:02:27;;;;;;;224.57;215.00;;;8.60;99.90;;;;;;4447467;32;20574;-58
2022/03/27 04:04:54;;;;;;;221.63;212.30;;;8.50;99.90;;;;;;4452648;32;20155;-58
2022/03/27 04:07:22;;;;;;;218.27;209.03;;;8.50;99.90;;;;;;4449764;32;20500;-58
2022/03/27 04:09:49;;;;;;;221.83;212.33;;;8.50;99.90;;;;;;4438634;32;20260;-56
2022/03/27 04:12:16;;;;;;;203.20;194.73;;;8.50;99.90;;;;;;4439201;32;20173;-58
2022/03/27 04:14:43;;;;;;;208.27;199.33;;;8.40;99.90;;;;;;4438520;32;20227;-57
2022/03/27 04:17:12;;;;;;;228.03;218.80;;;8.40;99.90;;;;;;4438866;32;20191;-58
2022/03/27 04:19:40;;;;;;;208.00;199.10;;;8.50;99.90;;;;;;4453656;32;20159;-58
2022/03/27 04:22:07;;;;;;;216.23;207.37;;;8.40;99.90;;;;;;4449162;32;20620;-58
2022/03/27 04:24:34;;;;;;;212.80;204.00;;;8.50;99.90;;;;;;4453581;32;20147;-55
2022/03/27 04:27:01;;;;;;;207.87;199.07;;;8.50;99.90;;;;;;4447267;32;20212;-58
2022/03/27 04:29:28;;;;;;;201.27;192.87;;;8.40;99.90;;;;;;4440389;32;20548;-58
2022/03/27 04:31:54;;;;;;;213.17;204.33;;;8.40;99.90;;;;;;4451000;32;20541;-58
2022/03/27 04:34:23;;;;;;;201.00;192.47;;;8.30;99.90;;;;;;4453446;32;20219;-58
2022/03/27 04:36:49;;;;;;;210.00;201.17;;;8.30;99.90;;;;;;4446608;32;20224;-58
2022/03/27 04:39:17;;;;;;;210.70;202.00;;;8.30;99.90;;;;;;4441471;32;20218;-55
2022/03/27 04:41:44;;;;;;;196.63;188.47;;;8.20;99.90;;;;;;4450253;32;20219;-54
2022/03/27 04:44:11;;;;;;;195.60;187.60;;;8.10;99.90;;;;;;4437378;32;20181;-58
2022/03/27 04:46:38;;;;;;;203.50;194.90;;;8.00;99.90;;;;;;4439503;32;20167;-58
2022/03/27 04:49:05;;;;;;;187.77;180.03;;;8.00;99.90;;;;;;4444863;32;20232;-58
2022/03/27 04:51:33;;;;;;;180.30;172.80;;;8.00;99.90;;;;;;4451348;32;20213;-57
2022/03/27 04:54:00;;;;;;;188.30;180.40;;;8.00;99.90;;;;;;4452352;32;20198;-58
2022/03/27 04:56:27;;;;;;;194.27;186.17;;;7.90;99.90;;;;;;4451021;32;20171;-57
2022/03/27 04:58:53;;;;;;;191.73;183.63;;;7.80;99.90;;;;;;4444419;32;20207;-59
2022/03/27 05:01:20;;;;;;;189.53;181.43;;;7.90;99.90;;;;;;4447687;32;20206;-58
2022/03/27 05:03:47;;;;;;;179.33;171.73;;;8.00;99.90;;;;;;4452667;32;20514;-58
2022/03/27 05:06:15;;;;;;;188.57;180.73;;;8.00;99.90;;;;;;4446057;32;20632;-58
2022/03/27 05:08:45;;;;;;;175.10;167.73;;;8.00;99.90;;;;;;4448134;32;20648;-58
2022/03/27 05:11:12;;;;;;;194.90;186.73;;;8.00;99.90;;;;;;4451148;32;20561;-58
2022/03/27 05:13:38;;;;;;;194.80;186.60;;;8.10;99.90;;;;;;4451116;32;20254;-58
2022/03/27 05:16:05;;;;;;;189.90;182.10;;;8.10;99.90;;;;;;4437492;32;20179;-59
2022/03/27 05:18:32;;;;;;;198.23;189.93;;;8.10;99.90;;;;;;4437357;32;20183;-58
2022/03/27 05:20:59;;;;;;;191.43;183.50;;;8.20;99.90;;;;;;4448357;32;20635;-58
2022/03/27 05:23:26;;;;;;;187.83;180.03;;;8.10;99.90;;;;;;4439071;32;20214;-57
2022/03/27 05:25:54;;;;;;;176.43;168.97;;;8.10;99.90;;;;;;4436955;32;20519;-58
2022/03/27 05:28:21;;;;;;;170.93;163.77;;;8.10;99.90;;;;;;4442885;32;20665;-58
2022/03/27 05:30:47;;;;;;;169.00;161.87;;;7.90;99.90;;;;;;4448973;32;20635;-56
2022/03/27 05:33:14;;;;;;;165.03;157.90;;;7.80;99.90;;;;;;4443181;32;20191;-59
2022/03/27 05:35:41;;;;;;;169.97;162.93;;;7.80;99.90;;;;;;4453819;32;20169;-58
2022/03/27 05:38:08;;;;;;;180.73;173.17;;;7.70;99.90;;;;;;4451877;32;20180;-59
2022/03/27 05:40:35;;;;;;;162.40;155.53;;;7.70;99.90;;;;;;4450829;32;20207;-58
2022/03/27 05:43:03;;;;;;;165.23;158.33;;;7.50;99.90;;;;;;4439622;32;20222;-58
2022/03/27 05:45:30;;;;;;;160.97;154.03;;;7.50;99.90;;;;;;4442410;32;20158;-58
2022/03/27 05:48:00;;;;;;;160.33;153.60;;;7.40;99.90;;;;;;4446206;32;20254;-58
2022/03/27 05:50:27;;;;;;;171.23;164.10;;;7.40;99.90;;;;;;4445338;32;20155;-59
2022/03/27 05:52:58;;;;;;;153.57;147.13;;;7.50;99.90;;;;;;4450240;32;20187;-59
2022/03/27 05:55:26;;;;;;;151.60;145.17;;;7.60;99.90;;;;;;4447986;32;20224;-59
2022/03/27 05:57:52;;;;;;;157.77;151.13;;;7.60;99.90;;;;;;4440882;32;20654;-59
2022/03/27 06:00:21;;;;;;;162.53;155.77;;;7.60;99.90;;;;;;4440616;32;20218;-57
2022/03/27 06:02:49;;;;;;;153.43;146.93;;;7.60;99.90;;;;;;4439646;32;20222;-57
2022/03/27 06:05:17;;;;;;;154.77;148.27;;;7.70;99.90;;;;;;4442098;32;20243;-56
2022/03/27 06:07:46;;;;;;;163.50;156.50;;;7.70;99.90;;;;;;4440656;32;20246;-57
2022/03/27 06:10:14;;;;;;;152.57;146.10;;;7.60;99.90;;;;;;4449124;32;20217;-55
2022/03/27 06:12:43;;;;;;;159.20;152.53;;;7.70;99.90;;;;;;4449561;32;20224;-56
2022/03/27 06:15:10;;;;;;;159.23;152.67;;;7.70;99.90;;;;;;4452191;32;20140;-58
2022/03/27 06:17:43;;;;;;;154.50;147.90;;;7.70;99.90;;;;;;4443481;32;20206;-58
2022/03/27 06:20:12;;;;;;;157.37;150.67;;;7.70;99.90;;;;;;4437060;32;20478;-58
2022/03/27 06:22:39;;;;;;;151.40;145.03;;;7.80;99.90;;;;;;4438211;32;20163;-59
2022/03/27 06:25:07;;;;;;;147.07;140.73;;;7.80;99.90;;;;;;4448296;32;20251;-58
2022/03/27 06:27:34;;;;;;;143.17;137.10;;;7.90;99.90;;;;;;4448461;32;20223;-59
2022/03/27 06:30:01;;;;;;;146.40;140.17;;;8.00;99.90;;;;;;4452556;32;20654;-57
2022/03/27 06:32:27;;;;;;;153.93;147.47;;;8.00;99.90;;;;;;4443375;32;20156;-58
2022/03/27 06:34:59;;;;;;;143.80;137.77;;;8.00;99.90;;;;;;4436553;32;20215;-58
2022/03/27 06:37:27;;;;;;;144.27;138.07;;;8.20;99.90;;;;;;4441201;32;20494;-56
2022/03/27 06:39:55;;;;;;;134.20;128.47;;;8.20;99.90;;;;;;4440454;32;20178;-56
2022/03/27 06:42:22;;;;;;;139.43;133.43;;;8.20;99.90;;;;;;4439716;32;20625;-57
2022/03/27 06:44:50;;;;;;;146.40;140.30;;;8.20;99.90;;;;;;4453327;32;20599;-57
2022/03/27 06:47:17;;;;;;;143.07;136.87;;;8.10;99.90;;;;;;4448327;32;20667;-58
2022/03/27 06:49:43;;;;;;;152.27;145.87;;;8.00;99.90;;;;;;4449072;32;20231;-58
2022/03/27 06:52:12;;;;;;;136.20;130.47;;;8.00;99.90;;;;;;4440856;32;20626;-58
2022/03/27 06:54:39;;;;;;;152.07;145.80;;;7.90;99.90;;;;;;4452578;32;20175;-58
2022/03/27 06:57:06;;;;;;;154.33;147.77;;;7.80;99.90;;;;;;4446799;32;20166;-58
2022/03/27 07:03:01;;;;;;;146.40;140.27;;;7.80;99.90;;;;;;4435127;32;20191;-58
2022/03/27 07:05:06;;;;;;;138.33;132.63;;;7.80;99.90;;;;;;4445411;32;20206;-56
2022/03/27 07:07:36;;;;;;;147.23;141.00;;;7.80;99.90;;;;;;4443325;32;20193;-58
2022/03/27 07:10:04;;;;;;;150.93;144.53;;;7.80;99.90;;;;;;4444758;32;20163;-57
2022/03/27 07:12:30;;;;;;;146.07;139.90;;;7.80;99.90;;;;;;4443012;32;20159;-56
2022/03/27 07:14:58;;;;;;;139.83;133.87;;;7.80;99.90;;;;;;4442096;32;20189;-57
2022/03/27 07:17:25;;;;;;;141.80;135.90;;;7.80;99.90;;;;;;4443945;32;20155;-56
2022/03/27 07:19:53;;;;;;;144.37;138.27;;;7.80;99.90;;;;;;4442608;32;20159;-57
2022/03/27 07:22:20;;;;;;;136.67;130.77;;;7.80;99.90;;;;;;4442109;32;20174;-56
2022/03/27 07:24:48;;;;;;;134.23;128.53;;;7.80;99.90;;;;;;4442961;32;20212;-59
2022/03/27 07:27:16;;;;;;;142.40;136.30;;;7.80;99.90;;;;;;4442119;32;20197;-57
2022/03/27 07:29:43;;;;;;;140.10;133.90;;;7.90;99.90;;;;;;4443640;32;20174;-58
2022/03/27 07:32:11;;;;;;;135.33;129.37;;;8.00;99.90;;;;;;4443232;32;20289;-59
2022/03/27 07:34:38;;;;;;;139.00;132.93;;;8.00;99.90;;;;;;4442715;32;20219;-58
2022/03/27 07:37:05;;;;;;;152.03;145.67;;;8.10;99.90;;;;;;4445449;32;20182;-58
2022/03/27 07:39:32;;;;;;;149.83;143.47;;;8.20;99.90;;;;;;4440980;32;20159;-57
2022/03/27 07:42:00;;;;;;;129.90;124.30;;;8.40;99.90;;;;;;4442147;32;20511;-56
2022/03/27 07:44:28;;;;;;;123.80;118.43;;;8.40;99.90;;;;;;4440589;32;20206;-59
2022/03/27 07:46:58;;;;;;;130.87;125.33;;;8.50;99.90;;;;;;4445134;32;20154;-57
2022/03/27 07:49:26;;;;;;;135.07;129.37;;;8.60;99.90;;;;;;4443314;32;20610;-57
2022/03/27 07:51:53;;;;;;;141.40;135.53;;;8.80;99.90;;;;;;4441398;32;20158;-57
2022/03/27 07:54:19;;;;;;;131.23;125.70;;;8.90;99.90;;;;;;4442381;32;20160;-57
2022/03/27 07:56:46;;;;;;;129.37;124.00;;;9.10;99.90;;;;;;4442376;32;20197;-57
2022/03/27 07:59:15;;;;;;;118.07;112.97;;;9.30;99.90;;;;;;4444078;32;20236;-58
2022/03/27 08:01:41;;;;;;;123.10;118.00;;;9.50;99.90;;;;;;4441066;32;20192;-58
2022/03/27 08:04:08;;;;;;;109.77;105.13;;;9.60;99.90;;;;;;4440628;32;20152;-59
2022/03/27 08:06:36;;;;;;;122.67;117.57;;;9.80;99.90;;;;;;4435644;32;20224;-59
2022/03/27 08:09:04;;;;;;;118.10;113.20;;;9.90;99.90;;;;;;4439941;32;20158;-59
2022/03/27 08:11:31;;;;;;;105.87;101.53;;;10.10;99.90;;;;;;4445894;32;20174;-59
2022/03/27 08:13:58;;;;;;;105.83;101.33;;;10.30;99.90;;;;;;4447230;32;20506;-59
2022/03/27 08:16:26;;;;;;;115.40;110.67;;;10.40;99.90;;;;;;4444605;32;20222;-55
2022/03/27 08:18:53;;;;;;;105.00;100.67;;;10.70;99.90;;;;;;4447418;32;20165;-58
2022/03/27 08:21:20;;;;;;;102.27;97.97;;;10.70;99.90;;;;;;4448817;32;20227;-59
2022/03/27 08:23:47;;;;;;;102.50;98.20;;;11.00;99.90;;;;;;4446087;32;20194;-58
2022/03/27 08:29:02;;;;;;;104.30;99.87;;;11.30;99.60;;;;;;4445154;32;20202;-58
2022/03/27 08:31:31;;;;;;;116.20;111.30;;;11.60;98.60;;;;;;4445004;32;20207;-59
2022/03/27 08:33:58;;;;;;;114.13;109.53;;;12.20;97.80;;;;;;4442104;32;20211;-57
2022/03/27 08:36:25;;;;;;;113.93;109.17;;;12.60;95.60;;;;;;4439742;32;20594;-58
2022/03/27 08:38:52;;;;;;;112.80;108.23;;;15.00;94.00;;;;;;4439925;32;20193;-59
2022/03/27 08:41:21;;;;;;;105.53;101.20;;;20.10;79.50;;;;;;4439317;32;20203;-58
2022/03/27 08:43:48;;;;;;;67.97;65.10;;;25.10;59.10;;;;;;4442204;32;20182;-57
2022/03/27 08:46:17;;;;;;;41.97;40.07;;;29.10;47.80;;;;;;4437703;32;20551;-59
2022/03/27 08:48:50;;;;;;;37.30;35.70;;;30.40;42.40;;;;;;4440546;32;20173;-59
2022/03/27 08:51:29;;;;;;;36.20;34.50;;;28.90;41.30;;;;;;4438516;32;20194;-59
2022/03/27 08:54:05;;;;;;;43.73;41.73;;;24.00;44.60;;;;;;4443071;32;20182;-59
2022/03/27 08:56:33;;;;;;;41.30;39.40;;;20.30;51.50;;;;;;4443104;32;20185;-59
2022/03/27 08:59:04;;;;;;;33.60;32.10;;;17.80;54.70;;;;;;4445570;32;20193;-59
2022/03/27 09:01:31;;;;;;;31.47;30.07;;;16.10;56.20;;;;;;4441896;32;20220;-58
2022/03/27 09:04:00;;;;;;;30.77;29.27;;;14.90;58.20;;;;;;4438957;32;20538;-59
2022/03/27 09:06:26;;;;;;;24.37;23.20;;;14.10;61.10;;;;;;4440441;32;20277;-59
2022/03/27 09:08:54;;;;;;;29.13;27.73;;;13.50;61.40;;;;;;4442585;32;20226;-58
2022/03/27 09:11:22;;;;;;;28.17;26.87;;;13.00;63.60;;;;;;4438841;32;20214;-59
2022/03/27 09:13:52;;;;;;;31.23;29.63;;;12.90;65.10;;;;;;4437674;32;20336;-59
2022/03/27 09:16:20;;;;;;;32.07;30.60;;;12.80;64.40;;;;;;4443409;32;20238;-59
2022/03/27 09:18:49;;;;;;;28.67;27.37;;;12.70;65.70;;;;;;4442209;32;20242;-58
2022/03/27 09:21:18;;;;;;;26.83;25.43;;;12.70;64.40;;;;;;4444505;32;20226;-58
2022/03/27 09:23:51;;;;;;;25.57;24.37;;;12.60;64.10;;;;;;4448888;32;20147;-58
2022/03/27 09:26:18;;;;;;;26.80;25.47;;;12.40;65.00;;;;;;4438215;32;20273;-59
2022/03/27 09:28:49;;;;;;;26.63;25.33;;;12.40;67.00;;;;;;4445490;32;20203;-56
2022/03/27 09:31:27;;;;;;;26.10;24.90;;;12.30;65.80;;;;;;4442300;32;20222;-57
2022/03/27 09:33:55;;;;;;;27.87;26.57;;;12.30;67.60;;;;;;4441556;32;20225;-59
2022/03/27 09:36:26;;;;;;;26.17;24.87;;;12.40;69.20;;;;;;4440459;32;20214;-58
2022/03/27 09:39:05;;;;;;;22.53;21.53;;;12.40;67.60;;;;;;4444337;32;20178;-57
2022/03/27 09:41:35;;;;;;;31.73;30.30;;;12.40;67.60;;;;;;4448952;32;20197;-57
2022/03/27 09:44:05;;;;;;;35.20;33.57;;;12.30;70.40;;;;;;4444775;32;20613;-58
2022/03/27 09:46:55;;;;;;;34.20;32.67;;;12.40;73.60;;;;;;4446730;32;20189;-57
2022/03/27 09:49:25;;;;;;;34.10;32.50;;;12.50;73.80;;;;;;4449659;32;20158;-58
2022/03/27 09:51:58;;;;;;;31.23;29.73;;;12.50;74.20;;;;;;4446875;32;20183;-58
2022/03/27 09:54:29;;;;;;;33.63;32.03;;;12.50;73.80;;;;;;4441474;32;20182;-58
2022/03/27 09:56:56;;;;;;;41.20;39.30;;;12.60;73.70;;;;;;4441033;32;20230;-58
2022/03/27 09:59:31;;;;;;;38.93;37.13;;;12.70;75.70;;;;;;4446901;32;20230;-58
2022/03/27 10:02:19;;;;;;;40.13;38.37;;;12.60;75.60;;;;;;4442704;32;20653;-58
2022/03/27 10:04:54;;;;;;;32.43;31.03;;;12.70;78.40;;;;;;4445656;32;20190;-58
2022/03/27 10:07:24;;;;;;;28.17;26.77;;;12.80;73.30;;;;;;4442829;32;20229;-57
2022/03/27 10:09:52;;;;;;;26.57;25.27;;;13.00;71.20;;;;;;4442057;32;20209;-57
2022/03/27 10:12:21;;;;;;;26.83;25.13;;;13.10;70.20;;;;;;4450521;32;20154;-57
2022/03/27 10:14:49;;;;;;;24.63;23.33;;;13.10;69.20;;;;;;4442313;32;20225;-58
2022/03/27 10:17:20;;;;;;;27.80;26.40;;;13.00;69.20;;;;;;4443518;32;20210;-58
2022/03/27 10:19:54;;;;;;;22.27;21.17;;;13.10;70.30;;;;;;4441714;32;20178;-58
2022/03/27 10:22:23;;;;;;;23.43;22.23;;;13.10;66.90;;;;;;4444915;32;20451;-59
2022/03/27 10:24:54;;;;;;;24.77;23.47;;;13.10;67.10;;;;;;4444602;32;20525;-59
2022/03/27 10:27:21;;;;;;;23.37;22.17;;;13.20;68.90;;;;;;4449481;32;20257;-59
2022/03/27 10:29:48;;;;;;;24.23;23.03;;;13.30;68.20;;;;;;4451797;32;20202;-58
2022/03/27 10:32:16;;;;;;;24.07;22.90;;;13.40;68.00;;;;;;4447990;32;20617;-59
2022/03/27 10:34:51;;;;;;;24.90;23.70;;;13.40;68.00;;;;;;4450420;32;20167;-59
2022/03/27 10:37:27;;;;;;;23.27;22.13;;;13.50;69.40;;;;;;4410905;32;20694;-58
2022/03/27 10:40:00;;;;;;;24.87;23.70;;;13.60;68.20;;;;;;4399103;32;20274;-59
2022/03/27 10:42:36;;;;;;;25.60;24.23;;;13.60;68.30;;;;;;4397801;32;20558;-59
2022/03/27 10:45:09;;;;;;;26.80;25.20;;;13.60;69.00;;;;;;4400237;32;20272;-58
2022/03/27 10:47:35;;;;;;;25.97;24.67;;;13.60;69.70;;;;;;4401213;32;20242;-59
2022/03/27 10:50:23;;;;;;;22.27;21.27;;;13.40;68.40;;;;;;4403381;32;20208;-58
2022/03/27 10:53:26;;;;;;;21.37;20.23;;;13.50;67.70;;;;;;4402906;32;20548;-58
2022/03/27 10:55:56;;;;;;;24.03;22.93;;;13.50;67.40;;;;;;4368172;32;20227;-59
2022/03/27 10:58:31;;;;;;;22.47;21.40;;;13.50;68.90;;;;;;4366795;32;20160;-58
2022/03/27 11:00:59;;;;;;;23.03;21.93;;;13.70;66.60;;;;;;4369892;32;20226;-59
2022/03/27 11:04:07;;;;;;;21.17;20.17;;;13.70;66.80;;;;;;4371687;32;20192;-58
2022/03/27 11:06:35;;;;;;;17.93;16.93;;;13.80;61.80;;;;;;4305776;33;20516;-58
2022/03/27 11:09:05;;;;;;;21.70;20.43;;;13.90;63.30;;;;;;4307657;33;20171;-59
2022/03/27 11:11:57;;;;;;;19.67;18.63;;;14.00;62.70;;;;;;4306090;33;20170;-59
2022/03/27 11:15:02;;;;;;;16.20;15.50;;;14.10;60.10;;;;;;4274781;33;20526;-58
2022/03/27 11:17:58;;;;;;;15.57;14.83;;;14.20;56.80;;;;;;4275936;33;20614;-59
2022/03/27 11:20:55;;;;;;;15.77;14.97;;;14.20;57.60;;;;;;4274141;33;20181;-59
2022/03/27 11:23:35;;;;;;;16.57;15.77;;;14.20;56.20;;;;;;4270792;33;20181;-59
2022/03/27 11:26:06;;;;;;;20.20;19.20;;;14.20;57.30;;;;;;4280640;33;20196;-58
2022/03/27 11:28:48;;;;;;;17.70;16.90;;;14.30;57.40;;;;;;4303061;33;20178;-58
2022/03/27 11:31:18;;;;;;;20.20;19.30;;;14.30;56.70;;;;;;4301786;33;20263;-58
2022/03/27 11:34:05;;;;;;;18.83;17.93;;;14.40;60.20;;;;;;4310238;33;20619;-59
2022/03/27 11:36:33;;;;;;;17.50;16.50;;;14.50;59.10;;;;;;4319479;32;20209;-57
2022/03/27 11:39:04;;;;;;;16.37;15.50;;;14.60;55.80;;;;;;4373887;32;20168;-59
2022/03/27 11:41:38;;;;;;;18.97;17.93;;;14.50;55.60;;;;;;4372029;32;20224;-59
2022/03/27 11:44:23;;;;;;;16.97;16.27;;;14.60;56.80;;;;;;4370597;32;20222;-59
2022/03/27 11:46:52;;;;;;;16.30;15.40;;;14.80;56.20;;;;;;4371642;32;20586;-60
2022/03/27 11:49:20;;;;;;;17.30;16.50;;;14.80;55.80;;;;;;4371681;32;20311;-59
2022/03/27 11:51:47;;;;;;;18.00;17.10;;;14.90;56.10;;;;;;4382844;32;20184;-59
2022/03/27 11:54:18;;;;;;;17.40;16.50;;;14.80;53.80;;;;;;4405072;32;20235;-59
2022/03/27 11:56:57;;;;;;;17.90;17.00;;;14.80;55.10;;;;;;4408305;32;20491;-59
2022/03/27 11:59:26;;;;;;;15.07;14.37;;;14.90;55.10;;;;;;4392483;32;20152;-59
2022/03/27 12:01:54;;;;;;;17.03;16.13;;;14.90;53.80;;;;;;4400285;32;20183;-59
2022/03/27 12:04:20;;;;;;;16.73;15.73;;;14.90;51.60;;;;;;4409081;32;20538;-59
2022/03/27 12:06:48;;;;;;;17.27;16.37;;;14.90;49.50;;;;;;4408007;32;20582;-59
2022/03/27 12:09:26;;;;;;;17.50;16.53;;;14.90;49.60;;;;;;4407839;32;20639;-58
2022/03/27 12:12:10;;;;;;;15.33;14.47;;;15.00;49.20;;;;;;4389172;32;20179;-59
2022/03/27 12:14:53;;;;;;;16.67;15.97;;;15.10;50.70;;;;;;4389667;32;20669;-60
2022/03/27 12:17:20;;;;;;;16.13;15.23;;;15.10;49.20;;;;;;4391049;32;20218;-59
2022/03/27 12:20:01;;;;;;;15.53;14.83;;;15.20;48.90;;;;;;4391964;32;20435;-58
2022/03/27 12:22:39;;;;;;;16.63;15.93;;;15.30;49.20;;;;;;4377641;32;20588;-60
2022/03/27 12:25:11;;;;;;;17.67;16.97;;;15.40;50.30;;;;;;4384779;32;20580;-60
2022/03/27 12:30:34;;;;;;;15.97;15.37;;;15.50;50.30;;;;;;4385531;32;20273;-58
2022/03/27 12:33:01;;;;;;;18.60;17.80;;;15.60;48.60;;;;;;4387902;32;20239;-58
2022/03/27 12:35:29;;;;;;;15.47;14.77;;;15.60;48.20;;;;;;4391497;32;20168;-60
2022/03/27 12:37:55;;;;;;;17.53;16.83;;;15.50;49.00;;;;;;4390139;32;20215;-59
2022/03/27 12:40:24;;;;;;;17.17;16.37;;;15.50;49.50;;;;;;4390176;32;20176;-60
2022/03/27 12:42:53;;;;;;;17.83;17.03;;;15.50;49.10;;;;;;4390139;32;20164;-59
2022/03/27 12:45:32;;;;;;;16.90;16.20;;;15.60;50.80;;;;;;4388321;32;20529;-59